Portada
METAR-TAF:

METAR-TAF

Aeroports :

Erzurum, Turquia

latitud: 39-55N, longitud: 041-16E, altitud: 1756 m

Observació

L'informe es va fer fa 40 minuts, a les 18:20 UTC
Vent 5 kt del Oest
Temperatura -6°C
Humitat 62%
Pressió 1026 hPa
Visibilitat 10 km o més
sense núvols per sota de 1500 mi sense presència de cumulonimbus.

METAR: LTCE 181820Z 26005KT CAVOK M06/M12 Q1026 NOSIG RMK RWY08R 22003KT 190V260 RWY26R /////KT RWY08L 26003KT 200V300

Hora: 22:00 (19:00 UTC)

Pronòstic

L'informe es va fer fa 2 hores i 20 minuts, a les 16:40 UTC
Pronòstic vàlid del 18 a les 18 UTC al 19 a les 18 UTC
Vent 2 kt amb direcció variable
Visibilitat 10 km o més
sense núvols per sota de 1500 mi sense presència de cumulonimbus.

TAF: LTCE 181640Z 1818/1918 VRB02KT CAVOK

Observacions i pronòstics meteorològics de més de 4000 aeroports (METAR i TAF).

Les estacions disponibles són els punts grocs i vermells al mapa.

Posi el ratolí al punt desitjat per veure el nom de l'estació.

Feu clic per veure les observacions i els pronòstics meteorològics.

Per canviar el mapa: feu clic els botons verds amb una creu de color negre per apropar; al botó verd amb un guió per allunyar la imatge; o en les fletxes verdes per a mapes adjacents.


METAR-TAF: